createdAt,value
2024-03-05T00:00:59.888Z,99495.31
2024-03-05T00:03:02.897Z,99500.13
2024-03-05T00:05:07.982Z,99497.69
2024-03-05T00:07:11.363Z,99500.28
2024-03-05T00:09:14.339Z,99492.13
2024-03-05T00:11:17.370Z,99486.72
2024-03-05T00:13:20.231Z,99494.47
2024-03-05T00:15:23.434Z,99486.06
2024-03-05T00:17:26.141Z,99476.31
2024-03-05T00:19:28.916Z,99476.59
2024-03-05T00:21:33.231Z,99488.16
2024-03-05T00:23:35.991Z,99477.88
2024-03-05T00:25:38.762Z,99486.44
2024-03-05T00:27:41.700Z,99482.34
2024-03-05T00:29:44.396Z,99477.22
2024-03-05T00:31:48.253Z,99477.22
2024-03-05T00:33:51.074Z,99472.28
2024-03-05T00:35:54.492Z,99466.00
2024-03-05T00:37:57.422Z,99466.00
2024-03-05T00:40:00.256Z,99459.00
2024-03-05T00:42:04.387Z,99464.94
2024-03-05T00:44:07.109Z,99462.03
2024-03-05T00:46:09.899Z,99464.22
2024-03-05T00:48:12.589Z,99462.38
2024-03-05T00:50:15.450Z,99458.50
2024-03-05T00:52:18.180Z,99476.06
2024-03-05T00:54:20.931Z,99469.06
2024-03-05T00:56:24.204Z,99468.34
2024-03-05T00:58:27.628Z,99468.69
2024-03-05T01:00:30.535Z,99466.72
2024-03-05T01:02:33.367Z,99469.09
2024-03-05T01:04:36.138Z,99469.56
2024-03-05T01:06:38.815Z,99470.84
2024-03-05T01:08:41.572Z,99465.72
2024-03-05T01:10:46.751Z,99466.44
2024-03-05T01:12:51.219Z,99475.56
2024-03-05T01:14:53.925Z,99472.56
2024-03-05T01:16:56.721Z,99472.56
2024-03-05T01:19:00.825Z,99475.69
2024-03-05T01:21:03.883Z,99471.53
2024-03-05T01:23:06.755Z,99474.91
2024-03-05T01:25:10.516Z,99480.53
2024-03-05T01:27:13.250Z,99481.59
2024-03-05T01:29:18.750Z,99486.75
2024-03-05T01:31:21.522Z,99474.56
2024-03-05T01:33:24.282Z,99484.75
2024-03-05T01:35:27.005Z,99481.34
2024-03-05T01:37:29.753Z,99484.13
2024-03-05T01:39:32.541Z,99486.34
2024-03-05T01:41:35.281Z,99481.53
2024-03-05T01:43:38.123Z,99482.69
2024-03-05T01:45:40.820Z,99475.22
2024-03-05T01:47:45.651Z,99472.97
2024-03-05T01:49:48.550Z,99472.06
2024-03-05T01:51:55.245Z,99472.06
2024-03-05T01:53:59.973Z,99480.38
2024-03-05T01:56:02.927Z,99473.94
2024-03-05T01:58:08.340Z,99472.28
2024-03-05T02:00:13.007Z,99473.09
2024-03-05T02:02:15.861Z,99474.06
2024-03-05T02:04:19.060Z,99477.44
2024-03-05T02:06:24.167Z,99478.84
2024-03-05T02:08:28.910Z,99474.28
2024-03-05T02:10:32.125Z,99473.22
2024-03-05T02:12:37.100Z,99478.84
2024-03-05T02:14:40.865Z,99474.28
2024-03-05T02:16:43.903Z,99477.22
2024-03-05T02:18:47.167Z,99474.53
2024-03-05T02:20:50.513Z,99483.88
2024-03-05T02:22:53.371Z,99474.31
2024-03-05T02:24:57.174Z,99470.22
2024-03-05T02:27:04.458Z,99472.72
2024-03-05T02:29:10.505Z,99473.75
2024-03-05T02:31:14.804Z,99478.56
2024-03-05T02:33:18.082Z,99475.31
2024-03-05T02:35:20.826Z,99491.44
2024-03-05T02:37:23.563Z,99483.03
2024-03-05T02:39:28.579Z,99480.81
2024-03-05T02:41:31.400Z,99473.44
2024-03-05T02:43:35.068Z,99480.34
2024-03-05T02:45:37.883Z,99482.47
2024-03-05T02:47:44.181Z,99481.28
2024-03-05T02:49:47.176Z,99480.94
2024-03-05T02:51:50.303Z,99475.78
2024-03-05T02:53:53.029Z,99469.84
2024-03-05T02:55:55.793Z,99476.75
2024-03-05T02:57:58.600Z,99475.34
2024-03-05T03:00:01.367Z,99466.25
2024-03-05T03:02:04.832Z,99467.03
2024-03-05T03:04:07.666Z,99461.34
2024-03-05T03:06:17.843Z,99468.56
2024-03-05T03:08:20.678Z,99474.78
2024-03-05T03:10:24.242Z,99474.63
2024-03-05T03:12:27.471Z,99475.34
2024-03-05T03:14:30.139Z,99462.84
2024-03-05T03:16:32.828Z,99477.69
2024-03-05T03:18:35.603Z,99475.00
2024-03-05T03:20:38.274Z,99475.00
2024-03-05T03:22:40.952Z,99477.69
2024-03-05T03:24:44.042Z,99481.66
2024-03-05T03:26:46.695Z,99486.81
2024-03-05T03:28:49.955Z,99476.88
2024-03-05T03:30:56.415Z,99481.06
2024-03-05T03:33:00.116Z,99482.47
2024-03-05T03:35:07.277Z,99476.88
2024-03-05T03:37:10.263Z,99482.84
2024-03-05T03:39:13.232Z,99479.56
2024-03-05T03:41:16.550Z,99474.63
2024-03-05T03:43:19.340Z,99484.47
2024-03-05T03:45:22.879Z,99479.19
2024-03-05T03:47:25.655Z,99475.00
2024-03-05T03:49:28.470Z,99477.81
2024-03-05T03:51:31.152Z,99482.69
2024-03-05T03:53:38.190Z,99483.28
2024-03-05T03:55:41.045Z,99486.81
2024-03-05T03:57:43.820Z,99483.28
2024-03-05T03:59:46.561Z,99483.53
2024-03-05T04:01:51.331Z,99484.34
2024-03-05T04:03:54.169Z,99491.13
2024-03-05T04:05:57.524Z,99484.47
2024-03-05T04:08:04.719Z,99487.16
2024-03-05T04:10:09.293Z,99492.19
2024-03-05T04:12:14.415Z,99494.63
2024-03-05T04:14:17.210Z,99492.75
2024-03-05T04:16:20.546Z,99489.94
2024-03-05T04:18:23.220Z,99496.50
2024-03-05T04:20:26.665Z,99490.75
2024-03-05T04:22:29.934Z,99498.59
2024-03-05T04:24:32.923Z,99490.66
2024-03-05T04:26:39.197Z,99514.97
2024-03-05T04:28:50.758Z,99506.91
2024-03-05T04:30:54.025Z,99502.38
2024-03-05T04:33:05.439Z,99502.59
2024-03-05T04:35:12.658Z,99509.59
2024-03-05T04:37:15.583Z,99510.66
2024-03-05T04:39:18.279Z,99509.59
2024-03-05T04:41:20.984Z,99499.53
2024-03-05T04:43:23.734Z,99516.41
2024-03-05T04:45:27.022Z,99514.25
2024-03-05T04:47:31.010Z,99506.19
2024-03-05T04:49:33.801Z,99514.03
2024-03-05T04:51:36.489Z,99517.22
2024-03-05T04:53:39.708Z,99523.16
2024-03-05T04:55:42.440Z,99519.63
2024-03-05T04:57:45.153Z,99524.69
2024-03-05T04:59:49.339Z,99529.84
2024-03-05T05:01:53.400Z,99523.16
2024-03-05T05:03:56.125Z,99520.81
2024-03-05T05:05:58.909Z,99518.13
2024-03-05T05:08:03.302Z,99522.81
2024-03-05T05:10:08.832Z,99527.59
2024-03-05T05:12:12.916Z,99528.75
2024-03-05T05:14:15.638Z,99520.47
2024-03-05T05:16:18.563Z,99526.44
2024-03-05T05:18:21.695Z,99528.50
2024-03-05T05:20:24.445Z,99534.34
2024-03-05T05:22:27.281Z,99532.34
2024-03-05T05:24:30.134Z,99530.81
2024-03-05T05:26:32.836Z,99529.78
2024-03-05T05:28:36.022Z,99534.19
2024-03-05T05:30:38.733Z,99542.97
2024-03-05T05:32:41.650Z,99538.84
2024-03-05T05:34:44.924Z,99548.19
2024-03-05T05:36:47.965Z,99545.69
2024-03-05T05:38:51.749Z,99540.19
2024-03-05T05:40:54.931Z,99537.59
2024-03-05T05:42:59.856Z,99537.47
2024-03-05T05:45:09.276Z,99534.97
2024-03-05T05:47:12.915Z,99536.13
2024-03-05T05:49:21.333Z,99538.94
2024-03-05T05:51:25.451Z,99547.69
2024-03-05T05:53:28.612Z,99548.56
2024-03-05T05:55:31.531Z,99537.97
2024-03-05T05:57:34.355Z,99540.44
2024-03-05T05:59:37.844Z,99533.81
2024-03-05T06:01:42.385Z,99546.56
2024-03-05T06:03:48.143Z,99545.03
2024-03-05T06:05:50.861Z,99541.75
2024-03-05T06:07:54.013Z,99551.06
2024-03-05T06:09:56.782Z,99540.03
2024-03-05T06:12:00.458Z,99539.63
2024-03-05T06:14:03.956Z,99544.44
2024-03-05T06:16:09.075Z,99536.41
2024-03-05T06:18:12.363Z,99537.84
2024-03-05T06:20:16.188Z,99540.53
2024-03-05T06:22:23.268Z,99539.53
2024-03-05T06:24:29.905Z,99537.69
2024-03-05T06:26:36.735Z,99540.38
2024-03-05T06:28:39.544Z,99541.66
2024-03-05T06:30:47.513Z,99540.09
2024-03-05T06:32:53.310Z,99550.25
2024-03-05T06:34:56.957Z,99546.25
2024-03-05T06:36:59.894Z,99545.78
2024-03-05T06:39:20.170Z,99543.63
2024-03-05T06:41:26.563Z,99545.28
2024-03-05T06:43:38.415Z,99549.59
2024-03-05T06:45:44.377Z,99557.22
2024-03-05T06:48:07.212Z,99549.13
2024-03-05T06:50:21.128Z,99550.00
2024-03-05T06:52:42.341Z,99548.75
2024-03-05T06:55:03.557Z,99553.63
2024-03-05T06:57:08.653Z,99555.81
2024-03-05T06:59:11.949Z,99557.09
2024-03-05T07:01:21.859Z,99563.56
2024-03-05T07:03:26.718Z,99562.16
2024-03-05T07:05:30.138Z,99558.88
2024-03-05T07:07:34.764Z,99557.03
2024-03-05T07:09:38.606Z,99563.69
2024-03-05T07:11:41.391Z,99563.47
2024-03-05T07:13:50.024Z,99561.38
2024-03-05T07:15:53.244Z,99560.63
2024-03-05T07:17:55.958Z,99564.47
2024-03-05T07:19:59.440Z,99557.06
2024-03-05T07:22:02.265Z,99570.69
2024-03-05T07:24:05.475Z,99561.16
2024-03-05T07:26:08.526Z,99560.09
2024-03-05T07:28:14.281Z,99564.28
2024-03-05T07:30:19.029Z,99558.44
2024-03-05T07:32:21.744Z,99553.09
2024-03-05T07:34:24.472Z,99551.16
2024-03-05T07:36:27.326Z,99544.44
2024-03-05T07:38:30.056Z,99554.34
2024-03-05T07:40:32.802Z,99560.09
2024-03-05T07:42:36.991Z,99558.25
2024-03-05T07:44:39.706Z,99565.34
2024-03-05T07:46:42.521Z,99568.63
2024-03-05T07:48:45.280Z,99569.72
2024-03-05T07:50:50.276Z,99574.84
2024-03-05T07:52:55.412Z,99578.34
2024-03-05T07:54:59.064Z,99570.75
2024-03-05T07:57:02.917Z,99577.00
2024-03-05T07:59:06.814Z,99581.56
2024-03-05T08:01:09.704Z,99580.13
2024-03-05T08:03:12.673Z,99582.28
2024-03-05T08:05:22.624Z,99585.56
2024-03-05T08:07:25.461Z,99585.09
2024-03-05T08:09:28.221Z,99585.97
2024-03-05T08:11:31.378Z,99578.69
2024-03-05T08:13:37.059Z,99576.81
2024-03-05T08:15:40.016Z,99585.78
2024-03-05T08:17:47.464Z,99584.44
2024-03-05T08:19:51.496Z,99588.56
2024-03-05T08:21:54.271Z,99581.75
2024-03-05T08:24:03.772Z,99577.69
2024-03-05T08:26:06.713Z,99578.78
2024-03-05T08:28:09.505Z,99576.59
2024-03-05T08:30:16.682Z,99583.66
2024-03-05T08:32:19.788Z,99580.94
2024-03-05T08:34:25.488Z,99577.38
2024-03-05T08:36:28.937Z,99584.72
2024-03-05T08:38:31.705Z,99577.91
2024-03-05T08:40:37.021Z,99579.22
2024-03-05T08:42:45.687Z,99577.81
2024-03-05T08:44:48.996Z,99574.19
2024-03-05T08:46:51.868Z,99579.78
2024-03-05T08:48:54.613Z,99576.16
2024-03-05T08:50:59.920Z,99576.44
2024-03-05T08:53:04.292Z,99575.31
2024-03-05T08:55:09.743Z,99576.34
2024-03-05T08:57:12.480Z,99575.66
2024-03-05T08:59:15.785Z,99579.94
2024-03-05T09:01:18.656Z,99575.84
2024-03-05T09:03:22.295Z,99579.75
2024-03-05T09:05:24.988Z,99574.97
2024-03-05T09:07:27.812Z,99577.94
2024-03-05T09:09:31.717Z,99573.75
2024-03-05T09:11:36.620Z,99589.78
2024-03-05T09:13:45.218Z,99579.38
2024-03-05T09:15:48.226Z,99575.00
2024-03-05T09:17:51.063Z,99584.78
2024-03-05T09:19:56.762Z,99589.38
2024-03-05T09:22:00.938Z,99595.69
2024-03-05T09:24:07.838Z,99589.25
2024-03-05T09:26:11.829Z,99596.91
2024-03-05T09:28:15.149Z,99592.91
2024-03-05T09:30:19.775Z,99593.31
2024-03-05T09:32:22.670Z,99597.91
2024-03-05T09:34:25.724Z,99595.00
2024-03-05T09:36:28.553Z,99592.44
2024-03-05T09:38:34.189Z,99595.72
2024-03-05T09:40:37.518Z,99592.94
2024-03-05T09:42:40.349Z,99594.91
2024-03-05T09:44:43.148Z,99592.41
2024-03-05T09:46:49.617Z,99591.78
2024-03-05T09:48:54.063Z,99587.50
2024-03-05T09:50:58.113Z,99593.81
2024-03-05T09:53:01.579Z,99596.41
2024-03-05T09:55:05.790Z,99595.59
2024-03-05T09:57:08.824Z,99591.75
2024-03-05T09:59:22.165Z,99597.97
2024-03-05T10:01:25.484Z,99606.63
2024-03-05T10:03:28.251Z,99595.72
2024-03-05T10:05:31.669Z,99594.53
2024-03-05T10:07:34.533Z,99595.06
2024-03-05T10:09:37.386Z,99598.63
2024-03-05T10:11:41.906Z,99590.34
2024-03-05T10:13:44.879Z,99602.00
2024-03-05T10:15:48.914Z,99596.88
2024-03-05T10:17:54.904Z,99589.63
2024-03-05T10:19:58.124Z,99593.88
2024-03-05T10:22:12.179Z,99589.03
2024-03-05T10:24:15.383Z,99587.03
2024-03-05T10:26:22.470Z,99596.69
2024-03-05T10:28:32.244Z,99598.47
2024-03-05T10:30:36.274Z,99594.13
2024-03-05T10:32:39.864Z,99586.38
2024-03-05T10:34:47.462Z,99606.59
2024-03-05T10:36:53.237Z,99595.09
2024-03-05T10:38:57.028Z,99595.63
2024-03-05T10:41:00.897Z,99595.66
2024-03-05T10:43:06.365Z,99598.09
2024-03-05T10:45:10.658Z,99603.47
2024-03-05T10:47:14.512Z,99612.16
2024-03-05T10:49:21.089Z,99601.31
2024-03-05T10:51:30.556Z,99595.47
2024-03-05T10:53:34.396Z,99599.28
2024-03-05T10:55:39.227Z,99597.72
2024-03-05T10:58:04.024Z,99608.69
2024-03-05T11:00:10.249Z,99608.19
2024-03-05T11:02:14.989Z,99602.59
2024-03-05T11:04:24.050Z,99609.91
2024-03-05T11:06:26.978Z,99609.16
2024-03-05T11:08:29.721Z,99616.31
2024-03-05T11:10:33.121Z,99602.22
2024-03-05T11:12:35.949Z,99613.78
2024-03-05T11:14:39.429Z,99616.81
2024-03-05T11:16:42.315Z,99609.22
2024-03-05T11:18:48.160Z,99615.25
2024-03-05T11:20:51.027Z,99609.72
2024-03-05T11:22:54.379Z,99618.84
2024-03-05T11:25:06.678Z,99620.28
2024-03-05T11:27:13.670Z,99613.16
2024-03-05T11:29:21.597Z,99614.75
2024-03-05T11:31:29.200Z,99614.13
2024-03-05T11:33:33.473Z,99616.28
2024-03-05T11:35:38.327Z,99612.75
2024-03-05T11:37:58.971Z,99618.03
2024-03-05T11:40:13.810Z,99618.03
2024-03-05T11:42:18.463Z,99621.63
2024-03-05T11:44:33.725Z,99624.69
2024-03-05T11:46:46.529Z,99615.97
2024-03-05T11:49:01.550Z,99620.88
2024-03-05T11:51:04.849Z,99617.06
2024-03-05T11:53:09.213Z,99618.16
2024-03-05T11:55:13.373Z,99611.19
2024-03-05T11:57:17.822Z,99626.97
2024-03-05T11:59:20.469Z,99624.78
2024-03-05T12:01:25.690Z,99626.47
2024-03-05T12:03:29.199Z,99627.88
2024-03-05T12:05:32.018Z,99620.00
2024-03-05T12:07:34.780Z,99615.69
2024-03-05T12:09:41.516Z,99625.72
2024-03-05T12:11:57.681Z,99615.97
2024-03-05T12:14:08.855Z,99631.19
2024-03-05T12:16:13.609Z,99631.19
2024-03-05T12:18:18.632Z,99621.69
2024-03-05T12:20:22.063Z,99627.13
2024-03-05T12:22:24.841Z,99629.03
2024-03-05T12:24:31.801Z,99633.34
2024-03-05T12:26:35.574Z,99624.66
2024-03-05T12:28:38.514Z,99630.59
2024-03-05T12:30:41.851Z,99617.81
2024-03-05T12:32:48.736Z,99630.84
2024-03-05T12:34:52.699Z,99636.81
2024-03-05T12:36:55.916Z,99629.97
2024-03-05T12:38:59.239Z,99632.13
2024-03-05T12:41:02.601Z,99638.59
2024-03-05T12:43:10.290Z,99640.78
2024-03-05T12:45:17.199Z,99645.34
2024-03-05T12:47:21.314Z,99637.75
2024-03-05T12:49:24.154Z,99645.03
2024-03-05T12:51:28.128Z,99643.66
2024-03-05T12:53:31.186Z,99642.59
2024-03-05T12:55:34.335Z,99636.81
2024-03-05T12:57:37.154Z,99644.19
2024-03-05T12:59:39.920Z,99639.78
2024-03-05T13:01:42.631Z,99637.63
2024-03-05T13:03:45.441Z,99644.97
2024-03-05T13:05:48.293Z,99641.72
2024-03-05T13:07:51.132Z,99639.81
2024-03-05T13:09:55.628Z,99642.03
2024-03-05T13:11:58.718Z,99642.03
2024-03-05T13:14:11.425Z,99638.00
2024-03-05T13:16:14.246Z,99642.34
2024-03-05T13:18:17.674Z,99638.22
2024-03-05T13:20:20.728Z,99646.91
2024-03-05T13:22:24.384Z,99638.78
2024-03-05T13:24:27.150Z,99648.78
2024-03-05T13:26:29.838Z,99651.75
2024-03-05T13:28:32.648Z,99655.50
2024-03-05T13:30:36.718Z,99654.44
2024-03-05T13:32:39.569Z,99654.44
2024-03-05T13:34:45.426Z,99650.38
2024-03-05T13:36:48.161Z,99655.56
2024-03-05T13:38:52.192Z,99648.78
2024-03-05T13:40:55.709Z,99648.50
2024-03-05T13:42:59.968Z,99651.78
2024-03-05T13:45:11.786Z,99651.22
2024-03-05T13:47:14.817Z,99652.88
2024-03-05T13:49:19.634Z,99649.06
2024-03-05T13:51:22.508Z,99653.38
2024-03-05T13:53:25.361Z,99644.72
2024-03-05T13:55:30.326Z,99647.91
2024-03-05T13:57:33.143Z,99651.16
2024-03-05T13:59:36.087Z,99656.34
2024-03-05T14:01:43.092Z,99656.56
2024-03-05T14:03:45.876Z,99663.09
2024-03-05T14:05:48.623Z,99662.19
2024-03-05T14:07:51.441Z,99664.78
2024-03-05T14:09:54.152Z,99668.47
2024-03-05T14:11:58.534Z,99666.00
2024-03-05T14:14:02.328Z,99668.94
2024-03-05T14:16:07.937Z,99679.44
2024-03-05T14:18:10.813Z,99679.66
2024-03-05T14:20:15.070Z,99686.16
2024-03-05T14:22:18.740Z,99683.97
2024-03-05T14:24:22.063Z,99683.94
2024-03-05T14:26:25.671Z,99686.91
2024-03-05T14:28:28.347Z,99689.59
2024-03-05T14:30:32.861Z,99688.75
2024-03-05T14:32:35.652Z,99692.72
2024-03-05T14:34:40.871Z,99696.75
2024-03-05T14:36:44.593Z,99693.19
2024-03-05T14:38:47.430Z,99693.63
2024-03-05T14:40:56.100Z,99707.44
2024-03-05T14:42:59.130Z,99698.00
2024-03-05T14:45:02.359Z,99697.50
2024-03-05T14:47:05.791Z,99710.41
2024-03-05T14:49:13.000Z,99701.69
2024-03-05T14:51:15.726Z,99714.31
2024-03-05T14:53:18.489Z,99713.78
2024-03-05T14:55:21.853Z,99713.34
2024-03-05T14:57:24.654Z,99728.41
2024-03-05T14:59:27.335Z,99724.00
2024-03-05T15:01:30.125Z,99725.72
2024-03-05T15:03:33.544Z,99728.44
2024-03-05T15:05:36.360Z,99734.91
2024-03-05T15:07:42.809Z,99740.31
2024-03-05T15:09:46.763Z,99739.25
2024-03-05T15:11:49.508Z,99733.25
2024-03-05T15:13:53.137Z,99744.06
2024-03-05T15:15:56.818Z,99734.28
2024-03-05T15:17:59.490Z,99740.25
2024-03-05T15:20:02.424Z,99741.88
2024-03-05T15:22:07.641Z,99743.13
2024-03-05T15:24:12.179Z,99747.44
2024-03-05T15:26:16.844Z,99750.56
2024-03-05T15:28:19.711Z,99754.47
2024-03-05T15:30:22.335Z,99759.13
2024-03-05T15:32:25.041Z,99759.13
2024-03-05T15:34:27.939Z,99753.06
2024-03-05T15:36:32.552Z,99755.69
2024-03-05T15:38:36.261Z,99755.31
2024-03-05T15:40:39.250Z,99757.91
2024-03-05T15:42:55.542Z,99766.22
2024-03-05T15:44:58.193Z,99773.78
2024-03-05T15:47:01.415Z,99773.78
2024-03-05T15:49:04.872Z,99765.41
2024-03-05T15:51:07.815Z,99775.59
2024-03-05T15:53:10.556Z,99766.38
2024-03-05T15:55:13.358Z,99768.63
2024-03-05T15:57:21.215Z,99773.31
2024-03-05T15:59:42.514Z,99776.03
2024-03-05T16:01:45.236Z,99780.22
2024-03-05T16:03:58.227Z,99783.41
2024-03-05T16:06:18.679Z,99777.88
2024-03-05T16:08:25.530Z,99775.44
2024-03-05T16:10:35.595Z,99780.13
2024-03-05T16:12:43.769Z,99773.09
2024-03-05T16:14:47.388Z,99777.06
2024-03-05T16:16:50.084Z,99778.47
2024-03-05T16:18:52.866Z,99770.88
2024-03-05T16:20:55.607Z,99783.94
2024-03-05T16:22:58.534Z,99784.78
2024-03-05T16:25:01.363Z,99783.00
2024-03-05T16:27:04.693Z,99793.63
2024-03-05T16:29:07.919Z,99791.84
2024-03-05T16:31:14.092Z,99802.75
2024-03-05T16:33:17.487Z,99797.13
2024-03-05T16:35:21.130Z,99803.31
2024-03-05T16:37:24.024Z,99794.28
2024-03-05T16:39:26.632Z,99801.78
2024-03-05T16:41:29.358Z,99804.00
2024-03-05T16:43:32.099Z,99796.00
2024-03-05T16:45:36.298Z,99820.38
2024-03-05T16:47:44.041Z,99819.19
2024-03-05T16:49:46.883Z,99810.06
2024-03-05T16:51:50.129Z,99809.72
2024-03-05T16:53:54.129Z,99805.22
2024-03-05T16:55:57.343Z,99820.56
2024-03-05T16:58:00.418Z,99814.72
2024-03-05T17:00:05.405Z,99823.38
2024-03-05T17:02:09.634Z,99822.78
2024-03-05T17:04:15.793Z,99825.13
2024-03-05T17:06:20.496Z,99825.22
2024-03-05T17:08:25.202Z,99816.88
2024-03-05T17:10:30.273Z,99825.75
2024-03-05T17:12:35.691Z,99815.75
2024-03-05T17:14:39.315Z,99830.59
2024-03-05T17:16:46.343Z,99820.66
2024-03-05T17:18:50.513Z,99823.34
2024-03-05T17:20:54.860Z,99820.06
2024-03-05T17:22:58.770Z,99831.50
2024-03-05T17:25:02.532Z,99823.00
2024-03-05T17:27:06.730Z,99828.50
2024-03-05T17:29:11.445Z,99832.03
2024-03-05T17:31:14.321Z,99827.09
2024-03-05T17:33:17.643Z,99830.59
2024-03-05T17:35:20.699Z,99826.84
2024-03-05T17:37:24.051Z,99839.28
2024-03-05T17:39:26.877Z,99830.16
2024-03-05T17:41:30.424Z,99833.91
2024-03-05T17:43:33.191Z,99825.38
2024-03-05T17:45:36.162Z,99825.06
2024-03-05T17:47:40.576Z,99835.50
2024-03-05T17:49:43.612Z,99830.59
2024-03-05T17:51:46.512Z,99826.84
2024-03-05T17:53:49.644Z,99825.22
2024-03-05T17:55:52.414Z,99830.94
2024-03-05T17:57:55.259Z,99825.56
2024-03-05T18:00:00.664Z,99824.28
2024-03-05T18:02:04.159Z,99828.41
2024-03-05T18:04:06.891Z,99829.22
2024-03-05T18:06:09.666Z,99825.03
2024-03-05T18:08:13.180Z,99828.47
2024-03-05T18:10:15.964Z,99831.16
2024-03-05T18:12:18.843Z,99831.59
2024-03-05T18:14:23.312Z,99830.97
2024-03-05T18:16:26.197Z,99842.25
2024-03-05T18:18:28.995Z,99835.00
2024-03-05T18:20:31.821Z,99823.81
2024-03-05T18:22:34.500Z,99829.41
2024-03-05T18:24:37.905Z,99831.88
2024-03-05T18:26:40.529Z,99822.16
2024-03-05T18:28:44.578Z,99826.50
2024-03-05T18:30:49.184Z,99819.31
2024-03-05T18:32:52.664Z,99822.00
2024-03-05T18:34:55.545Z,99824.47
2024-03-05T18:36:58.155Z,99831.50
2024-03-05T18:39:01.454Z,99819.31
2024-03-05T18:41:04.482Z,99828.06
2024-03-05T18:43:07.225Z,99820.22
2024-03-05T18:45:13.108Z,99827.94
2024-03-05T18:47:16.373Z,99825.25
2024-03-05T18:49:21.295Z,99822.78
2024-03-05T18:51:24.039Z,99820.34
2024-03-05T18:53:36.188Z,99813.75
2024-03-05T18:55:47.291Z,99831.66
2024-03-05T18:57:50.049Z,99819.28
2024-03-05T18:59:52.947Z,99816.16
2024-03-05T19:01:55.794Z,99819.81
2024-03-05T19:04:05.105Z,99816.03
2024-03-05T19:06:09.976Z,99813.19
2024-03-05T19:08:12.712Z,99818.72
2024-03-05T19:10:19.709Z,99813.59
2024-03-05T19:12:22.874Z,99812.84
2024-03-05T19:14:25.650Z,99821.34
2024-03-05T19:16:28.610Z,99817.69
2024-03-05T19:18:31.871Z,99824.50
2024-03-05T19:20:34.753Z,99814.88
2024-03-05T19:22:38.008Z,99824.03
2024-03-05T19:24:40.880Z,99823.69
2024-03-05T19:26:43.715Z,99826.72
2024-03-05T19:28:46.679Z,99821.66
2024-03-05T19:30:49.411Z,99822.25
2024-03-05T19:32:52.668Z,99814.13
2024-03-05T19:34:55.410Z,99818.91
2024-03-05T19:36:58.666Z,99821.44
2024-03-05T19:39:01.334Z,99823.88
2024-03-05T19:41:04.278Z,99811.56
2024-03-05T19:43:08.450Z,99813.81
2024-03-05T19:45:12.311Z,99811.56
2024-03-05T19:47:16.315Z,99820.38
2024-03-05T19:49:19.008Z,99818.91
2024-03-05T19:51:21.690Z,99815.25
2024-03-05T19:53:24.634Z,99810.44
2024-03-05T19:55:27.416Z,99811.19
2024-03-05T19:57:30.184Z,99813.88
2024-03-05T19:59:32.823Z,99806.06
2024-03-05T20:01:35.982Z,99810.63
2024-03-05T20:03:40.054Z,99805.81
2024-03-05T20:05:42.963Z,99811.66
2024-03-05T20:07:45.860Z,99807.69
2024-03-05T20:09:48.868Z,99811.44
2024-03-05T20:11:51.797Z,99800.91
2024-03-05T20:13:58.959Z,99806.28
2024-03-05T20:16:01.889Z,99805.25
2024-03-05T20:18:05.748Z,99806.81
2024-03-05T20:20:10.936Z,99808.91
2024-03-05T20:22:13.894Z,99807.03
2024-03-05T20:24:16.820Z,99815.31
2024-03-05T20:26:20.365Z,99810.53
2024-03-05T20:28:23.489Z,99811.13
2024-03-05T20:30:26.438Z,99814.19
2024-03-05T20:32:30.688Z,99812.53
2024-03-05T20:34:34.097Z,99811.38
2024-03-05T20:36:38.186Z,99805.16
2024-03-05T20:38:42.638Z,99812.94
2024-03-05T20:40:45.485Z,99810.09
2024-03-05T20:42:48.265Z,99816.28
2024-03-05T20:44:51.032Z,99813.81
2024-03-05T20:46:53.702Z,99816.75
2024-03-05T20:48:56.556Z,99818.16
2024-03-05T20:50:59.581Z,99815.09
2024-03-05T20:53:02.565Z,99819.44
2024-03-05T20:55:05.737Z,99813.00
2024-03-05T20:57:08.537Z,99816.75
2024-03-05T20:59:11.493Z,99823.69
2024-03-05T21:01:16.270Z,99815.22
2024-03-05T21:03:22.932Z,99822.25
2024-03-05T21:05:25.798Z,99826.44
2024-03-05T21:07:28.529Z,99825.16
2024-03-05T21:09:31.300Z,99824.34
2024-03-05T21:11:34.536Z,99818.38
2024-03-05T21:13:43.082Z,99817.63
2024-03-05T21:15:46.355Z,99819.03
2024-03-05T21:17:49.254Z,99819.25
2024-03-05T21:19:51.973Z,99825.47
2024-03-05T21:21:54.924Z,99815.41
2024-03-05T21:23:58.097Z,99817.41
2024-03-05T21:26:13.958Z,99824.88
2024-03-05T21:28:27.745Z,99821.78
2024-03-05T21:30:30.465Z,99814.78
2024-03-05T21:32:33.550Z,99813.81
2024-03-05T21:34:36.411Z,99808.69
2024-03-05T21:36:40.430Z,99821.66
2024-03-05T21:38:43.158Z,99817.75
2024-03-05T21:40:46.304Z,99822.25
2024-03-05T21:42:49.081Z,99821.78
2024-03-05T21:44:51.791Z,99823.66
2024-03-05T21:46:54.480Z,99818.50
2024-03-05T21:48:57.517Z,99824.13
2024-03-05T21:51:06.539Z,99823.31
2024-03-05T21:53:14.902Z,99818.16
2024-03-05T21:55:17.900Z,99822.31
2024-03-05T21:57:20.966Z,99825.16
2024-03-05T21:59:23.711Z,99819.63
2024-03-05T22:01:26.419Z,99822.72
2024-03-05T22:03:30.144Z,99820.03
2024-03-05T22:05:33.742Z,99820.44
2024-03-05T22:07:37.062Z,99824.19
2024-03-05T22:09:41.820Z,99821.09
2024-03-05T22:11:44.681Z,99828.75
2024-03-05T22:13:48.678Z,99824.41
2024-03-05T22:15:51.728Z,99816.78
2024-03-05T22:17:55.189Z,99815.59
2024-03-05T22:19:57.978Z,99818.28
2024-03-05T22:22:00.727Z,99819.94
2024-03-05T22:24:04.184Z,99821.78
2024-03-05T22:26:07.950Z,99826.78
2024-03-05T22:28:13.949Z,99821.41
2024-03-05T22:30:16.874Z,99818.56
2024-03-05T22:32:19.847Z,99824.31
2024-03-05T22:34:22.661Z,99824.16
2024-03-05T22:36:25.516Z,99821.69
2024-03-05T22:38:28.297Z,99825.47
2024-03-05T22:40:31.275Z,99819.28
2024-03-05T22:42:36.962Z,99815.78
2024-03-05T22:44:40.929Z,99814.75
2024-03-05T22:46:43.949Z,99824.28
2024-03-05T22:48:46.756Z,99817.81
2024-03-05T22:50:53.206Z,99812.88
2024-03-05T22:52:56.056Z,99819.50
2024-03-05T22:55:00.206Z,99818.47
2024-03-05T22:57:04.265Z,99820.78
2024-03-05T22:59:07.071Z,99823.09
2024-03-05T23:01:11.264Z,99813.31
2024-03-05T23:03:14.093Z,99819.97
2024-03-05T23:05:17.499Z,99816.06
2024-03-05T23:07:20.464Z,99822.44
2024-03-05T23:09:23.300Z,99811.75
2024-03-05T23:11:26.244Z,99818.47
2024-03-05T23:13:29.113Z,99829.81
2024-03-05T23:15:31.996Z,99818.63
2024-03-05T23:17:34.970Z,99822.94
2024-03-05T23:19:40.000Z,99814.91
2024-03-05T23:21:42.778Z,99813.94
2024-03-05T23:23:46.142Z,99815.56
2024-03-05T23:25:49.447Z,99820.78
2024-03-05T23:27:52.229Z,99824.28
2024-03-05T23:29:55.060Z,99816.88
2024-03-05T23:31:57.828Z,99826.59
2024-03-05T23:34:00.588Z,99813.22
2024-03-05T23:36:03.862Z,99812.00
2024-03-05T23:38:08.034Z,99816.34
2024-03-05T23:40:12.562Z,99821.56
2024-03-05T23:42:15.864Z,99818.28
2024-03-05T23:44:18.951Z,99827.59
2024-03-05T23:46:22.354Z,99830.94
2024-03-05T23:48:25.258Z,99831.94
2024-03-05T23:50:28.078Z,99832.00
2024-03-05T23:52:30.854Z,99838.63
2024-03-05T23:54:35.301Z,99837.44
2024-03-05T23:56:39.327Z,99830.69
2024-03-05T23:58:43.304Z,99836.66
